sensor_id;sensor_type;location;lat;lon;timestamp;pressure;altitude;pressure_sealevel;temperature;humidity
4570;BME280;2297;51.442;6.996;2022-10-16T00:00:29;99787.72;;;14.33;66.12
4570;BME280;2297;51.442;6.996;2022-10-16T00:02:57;99789.88;;;14.25;66.18
4570;BME280;2297;51.442;6.996;2022-10-16T00:05:24;99807.53;;;14.26;66.38
4570;BME280;2297;51.442;6.996;2022-10-16T00:07:51;99811.72;;;14.11;66.59
4570;BME280;2297;51.442;6.996;2022-10-16T00:10:17;99814.09;;;14.38;65.81
4570;BME280;2297;51.442;6.996;2022-10-16T00:12:44;99816.03;;;14.34;65.95
4570;BME280;2297;51.442;6.996;2022-10-16T00:15:11;99815.44;;;14.27;65.83
4570;BME280;2297;51.442;6.996;2022-10-16T00:17:38;99816.16;;;14.31;65.99
4570;BME280;2297;51.442;6.996;2022-10-16T00:20:07;99816.03;;;14.34;65.95
4570;BME280;2297;51.442;6.996;2022-10-16T00:22:34;99805.19;;;14.18;66.37
4570;BME280;2297;51.442;6.996;2022-10-16T00:25:00;99810.50;;;14.18;66.38
4570;BME280;2297;51.442;6.996;2022-10-16T00:27:27;99819.59;;;14.12;66.61
4570;BME280;2297;51.442;6.996;2022-10-16T00:29:54;99821.63;;;14.28;66.19
4570;BME280;2297;51.442;6.996;2022-10-16T00:32:20;99818.69;;;14.34;65.81
4570;BME280;2297;51.442;6.996;2022-10-16T00:34:47;99814.03;;;13.98;67.38
4570;BME280;2297;51.442;6.996;2022-10-16T00:37:15;99825.06;;;14.09;66.79
4570;BME280;2297;51.442;6.996;2022-10-16T00:39:42;99821.72;;;14.04;67.03
4570;BME280;2297;51.442;6.996;2022-10-16T00:42:10;99837.00;;;13.99;67.23
4570;BME280;2297;51.442;6.996;2022-10-16T00:44:47;99826.09;;;14.05;67.23
4570;BME280;2297;51.442;6.996;2022-10-16T00:47:19;99827.81;;;14.06;67.25
4570;BME280;2297;51.442;6.996;2022-10-16T00:49:49;99825.97;;;14.08;66.93
4570;BME280;2297;51.442;6.996;2022-10-16T00:52:19;99821.00;;;14.01;67.21
4570;BME280;2297;51.442;6.996;2022-10-16T00:54:46;99826.38;;;13.99;66.95
4570;BME280;2297;51.442;6.996;2022-10-16T00:57:18;99818.47;;;13.97;67.23
4570;BME280;2297;51.442;6.996;2022-10-16T00:59:45;99826.63;;;13.93;67.12
4570;BME280;2297;51.442;6.996;2022-10-16T01:02:14;99827.00;;;13.84;67.75
4570;BME280;2297;51.442;6.996;2022-10-16T01:04:43;99814.16;;;13.95;67.49
4570;BME280;2297;51.442;6.996;2022-10-16T01:07:16;99811.50;;;13.95;67.36
4570;BME280;2297;51.442;6.996;2022-10-16T01:09:57;99815.47;;;14.05;66.60
4570;BME280;2297;51.442;6.996;2022-10-16T01:12:39;99817.59;;;13.97;66.71
4570;BME280;2297;51.442;6.996;2022-10-16T01:15:12;99827.28;;;13.98;66.95
4570;BME280;2297;51.442;6.996;2022-10-16T01:17:44;99826.38;;;13.99;66.67
4570;BME280;2297;51.442;6.996;2022-10-16T01:20:17;99827.44;;;14.16;66.03
4570;BME280;2297;51.442;6.996;2022-10-16T01:23:02;99829.94;;;13.98;66.31
4570;BME280;2297;51.442;6.996;2022-10-16T01:25:40;99825.53;;;14.19;65.85
4570;BME280;2297;51.442;6.996;2022-10-16T01:28:17;99827.72;;;14.30;65.11
4570;BME280;2297;51.442;6.996;2022-10-16T01:30:46;99822.66;;;14.03;65.97
4570;BME280;2297;51.442;6.996;2022-10-16T01:33:17;99823.41;;;14.07;65.85
4570;BME280;2297;51.442;6.996;2022-10-16T01:35:47;99816.28;;;14.07;66.04
4570;BME280;2297;51.442;6.996;2022-10-16T01:38:21;99831.63;;;14.01;65.85
4570;BME280;2297;51.442;6.996;2022-10-16T01:40:58;99822.66;;;14.03;65.71
4570;BME280;2297;51.442;6.996;2022-10-16T01:43:31;99825.94;;;13.88;66.27
4570;BME280;2297;51.442;6.996;2022-10-16T01:46:00;99823.81;;;13.75;66.38
4570;BME280;2297;51.442;6.996;2022-10-16T01:48:29;99819.88;;;13.86;66.68
4570;BME280;2297;51.442;6.996;2022-10-16T01:51:02;99815.53;;;14.04;66.02
4570;BME280;2297;51.442;6.996;2022-10-16T01:53:30;99828.38;;;13.72;67.21
4570;BME280;2297;51.442;6.996;2022-10-16T01:55:59;99822.06;;;13.96;66.21
4570;BME280;2297;51.442;6.996;2022-10-16T01:58:29;99819.72;;;13.89;66.20
4570;BME280;2297;51.442;6.996;2022-10-16T02:01:01;99813.81;;;13.82;66.76
4570;BME280;2297;51.442;6.996;2022-10-16T02:03:28;99823.50;;;13.83;66.78
4570;BME280;2297;51.442;6.996;2022-10-16T02:05:56;99826.88;;;13.87;66.42
4570;BME280;2297;51.442;6.996;2022-10-16T02:08:27;99827.16;;;13.80;66.63
4570;BME280;2297;51.442;6.996;2022-10-16T02:10:54;99833.91;;;13.88;66.58
4570;BME280;2297;51.442;6.996;2022-10-16T02:13:29;99831.00;;;13.94;66.08
4570;BME280;2297;51.442;6.996;2022-10-16T02:15:57;99833.47;;;13.98;65.99
4570;BME280;2297;51.442;6.996;2022-10-16T02:18:25;99831.94;;;13.93;66.08
4570;BME280;2297;51.442;6.996;2022-10-16T02:20:57;99826.38;;;13.99;65.89
4570;BME280;2297;51.442;6.996;2022-10-16T02:23:35;99831.47;;;13.83;66.43
4570;BME280;2297;51.442;6.996;2022-10-16T02:26:07;99826.75;;;13.90;66.33
4570;BME280;2297;51.442;6.996;2022-10-16T02:28:40;99826.28;;;13.80;66.54
4570;BME280;2297;51.442;6.996;2022-10-16T02:31:10;99828.75;;;13.85;66.52
4570;BME280;2297;51.442;6.996;2022-10-16T02:33:39;99835.66;;;13.89;66.14
4570;BME280;2297;51.442;6.996;2022-10-16T02:36:07;99839.75;;;13.75;66.51
4570;BME280;2297;51.442;6.996;2022-10-16T02:38:34;99834.31;;;13.78;66.79
4570;BME280;2297;51.442;6.996;2022-10-16T02:41:03;99838.50;;;13.84;66.57
4570;BME280;2297;51.442;6.996;2022-10-16T02:43:30;99839.56;;;14.01;65.94
4570;BME280;2297;51.442;6.996;2022-10-16T02:45:58;99832.75;;;13.95;66.10
4570;BME280;2297;51.442;6.996;2022-10-16T02:48:25;99836.84;;;14.02;65.73
4570;BME280;2297;51.442;6.996;2022-10-16T02:50:51;99829.69;;;14.04;65.39
4570;BME280;2297;51.442;6.996;2022-10-16T02:53:18;99841.75;;;14.11;65.28
4570;BME280;2297;51.442;6.996;2022-10-16T02:55:45;99832.06;;;13.90;66.07
4570;BME280;2297;51.442;6.996;2022-10-16T02:58:11;99835.66;;;13.89;65.58
4570;BME280;2297;51.442;6.996;2022-10-16T03:00:38;99829.94;;;13.77;65.85
4570;BME280;2297;51.442;6.996;2022-10-16T03:03:06;99833.59;;;13.75;66.29
4570;BME280;2297;51.442;6.996;2022-10-16T03:05:32;99832.84;;;13.71;66.09
4570;BME280;2297;51.442;6.996;2022-10-16T03:07:59;99834.97;;;13.63;66.43
4570;BME280;2297;51.442;6.996;2022-10-16T03:10:26;99847.72;;;13.75;65.81
4570;BME280;2297;51.442;6.996;2022-10-16T03:12:53;99841.59;;;13.73;65.49
4570;BME280;2297;51.442;6.996;2022-10-16T03:15:19;99843.31;;;13.74;65.22
4570;BME280;2297;51.442;6.996;2022-10-16T03:17:46;99846.66;;;13.79;65.22
4570;BME280;2297;51.442;6.996;2022-10-16T03:20:14;99842.56;;;13.93;64.77
4570;BME280;2297;51.442;6.996;2022-10-16T03:22:41;99839.97;;;13.91;64.42
4570;BME280;2297;51.442;6.996;2022-10-16T03:25:08;99838.94;;;13.73;64.74
4570;BME280;2297;51.442;6.996;2022-10-16T03:27:34;99841.94;;;13.86;64.89
4570;BME280;2297;51.442;6.996;2022-10-16T03:30:01;99843.75;;;13.86;64.58
4570;BME280;2297;51.442;6.996;2022-10-16T03:32:28;99835.78;;;13.86;64.54
4570;BME280;2297;51.442;6.996;2022-10-16T03:34:54;99826.84;;;13.88;64.46
4570;BME280;2297;51.442;6.996;2022-10-16T03:37:24;99842.16;;;13.82;64.42
4570;BME280;2297;51.442;6.996;2022-10-16T03:39:50;99840.72;;;13.95;64.12
4570;BME280;2297;51.442;6.996;2022-10-16T03:42:17;99847.31;;;13.85;64.48
4570;BME280;2297;51.442;6.996;2022-10-16T03:44:44;99851.81;;;13.83;64.29
4570;BME280;2297;51.442;6.996;2022-10-16T03:47:10;99849.22;;;13.81;64.44
4570;BME280;2297;51.442;6.996;2022-10-16T03:49:37;99858.72;;;13.87;64.39
4570;BME280;2297;51.442;6.996;2022-10-16T03:52:03;99853.75;;;13.79;64.59
4570;BME280;2297;51.442;6.996;2022-10-16T03:54:31;99847.88;;;13.71;64.71
4570;BME280;2297;51.442;6.996;2022-10-16T03:56:58;99844.66;;;13.85;64.08
4570;BME280;2297;51.442;6.996;2022-10-16T03:59:25;99849.84;;;13.88;64.03
4570;BME280;2297;51.442;6.996;2022-10-16T04:01:51;99852.44;;;13.89;63.83
4570;BME280;2297;51.442;6.996;2022-10-16T04:04:18;99856.88;;;13.89;64.27
4570;BME280;2297;51.442;6.996;2022-10-16T04:06:44;99850.13;;;13.82;64.36
4570;BME280;2297;51.442;6.996;2022-10-16T04:09:11;99856.22;;;13.84;64.09
4570;BME280;2297;51.442;6.996;2022-10-16T04:11:39;99856.28;;;13.60;64.84
4570;BME280;2297;51.442;6.996;2022-10-16T04:14:06;99867.75;;;13.83;64.29
4570;BME280;2297;51.442;6.996;2022-10-16T04:16:32;99875.16;;;13.74;64.61
4570;BME280;2297;51.442;6.996;2022-10-16T04:18:59;99869.47;;;13.61;65.00
4570;BME280;2297;51.442;6.996;2022-10-16T04:21:26;99876.84;;;13.55;64.95
4570;BME280;2297;51.442;6.996;2022-10-16T04:23:52;99870.00;;;13.49;65.24
4570;BME280;2297;51.442;6.996;2022-10-16T04:26:19;99871.84;;;13.47;65.42
4570;BME280;2297;51.442;6.996;2022-10-16T04:28:47;99868.13;;;13.29;66.18
4570;BME280;2297;51.442;6.996;2022-10-16T04:31:13;99875.81;;;13.59;65.11
4570;BME280;2297;51.442;6.996;2022-10-16T04:33:42;99879.94;;;13.66;64.66
4570;BME280;2297;51.442;6.996;2022-10-16T04:36:08;99888.13;;;13.60;65.09
4570;BME280;2297;51.442;6.996;2022-10-16T04:38:36;99887.03;;;13.43;65.59
4570;BME280;2297;51.442;6.996;2022-10-16T04:41:02;99891.47;;;13.65;64.65
4570;BME280;2297;51.442;6.996;2022-10-16T04:43:29;99895.91;;;13.64;64.76
4570;BME280;2297;51.442;6.996;2022-10-16T04:45:57;99903.88;;;13.64;64.76
4570;BME280;2297;51.442;6.996;2022-10-16T04:48:24;99905.53;;;13.67;64.61
4570;BME280;2297;51.442;6.996;2022-10-16T04:50:51;99905.25;;;13.29;65.58
4570;BME280;2297;51.442;6.996;2022-10-16T04:53:18;99892.31;;;13.43;65.30
4570;BME280;2297;51.442;6.996;2022-10-16T04:55:44;99901.44;;;13.36;65.49
4570;BME280;2297;51.442;6.996;2022-10-16T04:58:11;99909.47;;;13.57;64.77
4570;BME280;2297;51.442;6.996;2022-10-16T05:00:38;99916.88;;;13.49;65.18
4570;BME280;2297;51.442;6.996;2022-10-16T05:03:06;99914.09;;;13.52;65.01
4570;BME280;2297;51.442;6.996;2022-10-16T05:05:34;99918.97;;;13.62;64.73
4570;BME280;2297;51.442;6.996;2022-10-16T05:08:01;99922.69;;;13.58;64.96
4570;BME280;2297;51.442;6.996;2022-10-16T05:10:28;99926.38;;;13.54;64.81
4570;BME280;2297;51.442;6.996;2022-10-16T05:12:54;99930.03;;;13.52;64.80
4570;BME280;2297;51.442;6.996;2022-10-16T05:15:21;99934.63;;;13.46;65.25
4570;BME280;2297;51.442;6.996;2022-10-16T05:17:52;99934.53;;;13.50;65.36
4570;BME280;2297;51.442;6.996;2022-10-16T05:20:20;99947.81;;;13.50;65.26
4570;BME280;2297;51.442;6.996;2022-10-16T05:22:47;99933.50;;;13.54;65.30
4570;BME280;2297;51.442;6.996;2022-10-16T05:25:14;99941.44;;;13.54;65.09
4570;BME280;2297;51.442;6.996;2022-10-16T05:27:41;99940.56;;;13.53;64.92
4570;BME280;2297;51.442;6.996;2022-10-16T05:30:08;99945.16;;;13.50;65.02
4570;BME280;2297;51.442;6.996;2022-10-16T05:32:35;99942.31;;;13.54;65.00
4570;BME280;2297;51.442;6.996;2022-10-16T05:35:01;99941.19;;;13.60;65.08
4570;BME280;2297;51.442;6.996;2022-10-16T05:37:29;99940.66;;;13.28;66.23
4570;BME280;2297;51.442;6.996;2022-10-16T05:39:56;99945.84;;;13.31;66.13
4570;BME280;2297;51.442;6.996;2022-10-16T05:42:22;99946.50;;;13.36;65.99
4570;BME280;2297;51.442;6.996;2022-10-16T05:44:49;99943.53;;;13.22;66.50
4570;BME280;2297;51.442;6.996;2022-10-16T05:47:16;99935.56;;;13.45;65.59
4570;BME280;2297;51.442;6.996;2022-10-16T05:49:42;99945.72;;;13.34;66.07
4570;BME280;2297;51.442;6.996;2022-10-16T05:52:09;99955.84;;;13.46;65.71
4570;BME280;2297;51.442;6.996;2022-10-16T05:54:37;99950.31;;;13.53;65.37
4570;BME280;2297;51.442;6.996;2022-10-16T05:57:03;99962.03;;;13.47;65.51
4570;BME280;2297;51.442;6.996;2022-10-16T05:59:31;99974.19;;;13.53;65.40
4570;BME280;2297;51.442;6.996;2022-10-16T06:01:57;99971.91;;;13.43;65.54
4570;BME280;2297;51.442;6.996;2022-10-16T06:04:24;99988.56;;;13.23;66.28
4570;BME280;2297;51.442;6.996;2022-10-16T06:06:50;99986.91;;;13.44;65.69
4570;BME280;2297;51.442;6.996;2022-10-16T06:09:17;99980.97;;;13.38;66.28
4570;BME280;2297;51.442;6.996;2022-10-16T06:11:45;99983.91;;;13.30;66.16
4570;BME280;2297;51.442;6.996;2022-10-16T06:14:11;99988.94;;;13.36;66.39
4570;BME280;2297;51.442;6.996;2022-10-16T06:16:38;99998.66;;;13.37;66.21
4570;BME280;2297;51.442;6.996;2022-10-16T06:19:05;99994.38;;;13.33;66.37
4570;BME280;2297;51.442;6.996;2022-10-16T06:21:33;99999.91;;;13.51;65.59
4570;BME280;2297;51.442;6.996;2022-10-16T06:24:00;100004.59;;;13.19;66.66
4570;BME280;2297;51.442;6.996;2022-10-16T06:26:29;100013.06;;;13.30;66.53
4570;BME280;2297;51.442;6.996;2022-10-16T06:28:58;100011.13;;;13.35;66.17
4570;BME280;2297;51.442;6.996;2022-10-16T06:31:26;100006.09;;;13.51;65.76
4570;BME280;2297;51.442;6.996;2022-10-16T06:33:55;100005.47;;;13.44;65.89
4570;BME280;2297;51.442;6.996;2022-10-16T06:36:23;100002.13;;;13.39;65.88
4570;BME280;2297;51.442;6.996;2022-10-16T06:38:50;100015.81;;;13.27;66.96
4570;BME280;2297;51.442;6.996;2022-10-16T06:41:20;100016.28;;;13.38;66.53
4570;BME280;2297;51.442;6.996;2022-10-16T06:43:47;100023.56;;;13.33;66.42
4570;BME280;2297;51.442;6.996;2022-10-16T06:46:17;100024.88;;;13.45;66.40
4570;BME280;2297;51.442;6.996;2022-10-16T06:48:44;100030.47;;;13.61;65.64
4570;BME280;2297;51.442;6.996;2022-10-16T06:51:12;100026.34;;;13.54;65.91
4570;BME280;2297;51.442;6.996;2022-10-16T06:53:41;100043.13;;;13.54;66.14
4570;BME280;2297;51.442;6.996;2022-10-16T06:56:08;100050.03;;;13.58;65.89
4570;BME280;2297;51.442;6.996;2022-10-16T06:58:35;100066.59;;;13.65;65.63
4570;BME280;2297;51.442;6.996;2022-10-16T07:01:02;100057.25;;;13.31;66.60
4570;BME280;2297;51.442;6.996;2022-10-16T07:03:30;100066.00;;;13.33;67.10
4570;BME280;2297;51.442;6.996;2022-10-16T07:06:01;100075.94;;;13.52;66.43
4570;BME280;2297;51.442;6.996;2022-10-16T07:08:28;100074.72;;;13.60;66.02
4570;BME280;2297;51.442;6.996;2022-10-16T07:11:00;100083.25;;;13.69;65.99
4570;BME280;2297;51.442;6.996;2022-10-16T07:13:26;100088.69;;;13.66;66.10
4570;BME280;2297;51.442;6.996;2022-10-16T07:15:53;100088.81;;;13.37;67.06
4570;BME280;2297;51.442;6.996;2022-10-16T07:18:20;100096.44;;;13.46;66.60
4570;BME280;2297;51.442;6.996;2022-10-16T07:20:48;100100.63;;;13.54;66.60
4570;BME280;2297;51.442;6.996;2022-10-16T07:23:14;100108.94;;;13.43;67.01
4570;BME280;2297;51.442;6.996;2022-10-16T07:25:41;100105.69;;;13.60;66.36
4570;BME280;2297;51.442;6.996;2022-10-16T07:28:08;100116.72;;;13.73;65.95
4570;BME280;2297;51.442;6.996;2022-10-16T07:30:35;100114.59;;;13.59;66.56
4570;BME280;2297;51.442;6.996;2022-10-16T07:33:02;100111.94;;;13.59;66.47
4570;BME280;2297;51.442;6.996;2022-10-16T07:35:29;100114.00;;;13.74;65.87
4570;BME280;2297;51.442;6.996;2022-10-16T07:37:57;100113.03;;;13.77;65.85
4570;BME280;2297;51.442;6.996;2022-10-16T09:14:32;100264.56;;;14.20;66.09
4570;BME280;2297;51.442;6.996;2022-10-16T09:17:22;100259.88;;;14.28;64.99
4570;BME280;2297;51.442;6.996;2022-10-16T09:19:58;100279.75;;;14.63;64.20
4570;BME280;2297;51.442;6.996;2022-10-16T09:22:31;100269.53;;;14.76;63.34
4570;BME280;2297;51.442;6.996;2022-10-16T09:25:00;100275.22;;;14.67;62.92
4570;BME280;2297;51.442;6.996;2022-10-16T09:27:31;100271.13;;;14.80;62.30
4570;BME280;2297;51.442;6.996;2022-10-16T09:30:12;100273.56;;;14.87;61.96
4570;BME280;2297;51.442;6.996;2022-10-16T09:32:39;100284.13;;;14.88;62.00
4570;BME280;2297;51.442;6.996;2022-10-16T09:35:11;100276.03;;;14.91;61.20
4570;BME280;2297;51.442;6.996;2022-10-16T09:37:41;100276.00;;;15.15;60.64
4570;BME280;2297;51.442;6.996;2022-10-16T09:40:12;100282.66;;;15.03;61.22
4570;BME280;2297;51.442;6.996;2022-10-16T09:42:39;100275.03;;;15.18;60.93
4570;BME280;2297;51.442;6.996;2022-10-16T09:45:20;100285.66;;;15.18;60.04
4570;BME280;2297;51.442;6.996;2022-10-16T09:47:49;100273.34;;;15.37;59.80
4570;BME280;2297;51.442;6.996;2022-10-16T09:50:22;100274.25;;;15.36;59.41
4570;BME280;2297;51.442;6.996;2022-10-16T09:52:50;100277.47;;;15.44;59.24
4570;BME280;2297;51.442;6.996;2022-10-16T09:55:18;100276.25;;;15.31;59.27
4570;BME280;2297;51.442;6.996;2022-10-16T09:57:51;100282.41;;;15.54;58.98
4570;BME280;2297;51.442;6.996;2022-10-16T10:00:20;100284.66;;;15.42;58.99
4570;BME280;2297;51.442;6.996;2022-10-16T10:02:47;100281.72;;;15.28;59.43
4570;BME280;2297;51.442;6.996;2022-10-16T10:05:19;100280.31;;;15.62;59.13
4570;BME280;2297;51.442;6.996;2022-10-16T10:07:54;100281.16;;;15.62;58.49
4570;BME280;2297;51.442;6.996;2022-10-16T10:13:43;100279.03;;;16.12;57.15
4570;BME280;2297;51.442;6.996;2022-10-16T10:16:11;100284.25;;;16.15;57.28
4570;BME280;2297;51.442;6.996;2022-10-16T10:18:38;100285.78;;;16.21;56.87
4570;BME280;2297;51.442;6.996;2022-10-16T10:21:05;100277.38;;;16.30;56.55
4570;BME280;2297;51.442;6.996;2022-10-16T10:23:32;100295.16;;;16.29;56.45
4570;BME280;2297;51.442;6.996;2022-10-16T10:26:02;100291.44;;;16.53;55.76
4570;BME280;2297;51.442;6.996;2022-10-16T10:28:51;100281.09;;;16.26;55.76
4570;BME280;2297;51.442;6.996;2022-10-16T10:31:26;100282.13;;;16.42;55.78
4570;BME280;2297;51.442;6.996;2022-10-16T10:33:57;100290.34;;;16.57;55.17
4570;BME280;2297;51.442;6.996;2022-10-16T10:36:30;100291.66;;;16.67;55.05
4570;BME280;2297;51.442;6.996;2022-10-16T10:39:00;100296.56;;;16.76;54.33
4570;BME280;2297;51.442;6.996;2022-10-16T10:41:46;100299.16;;;16.97;53.86
4570;BME280;2297;51.442;6.996;2022-10-16T10:44:20;100294.25;;;16.88;53.92
4570;BME280;2297;51.442;6.996;2022-10-16T10:46:56;100295.91;;;16.90;52.78
4570;BME280;2297;51.442;6.996;2022-10-16T10:49:34;100294.53;;;16.82;52.59
4570;BME280;2297;51.442;6.996;2022-10-16T10:52:26;100293.63;;;16.83;52.52
4570;BME280;2297;51.442;6.996;2022-10-16T10:55:02;100291.47;;;16.91;52.31
4570;BME280;2297;51.442;6.996;2022-10-16T10:57:41;100293.81;;;17.16;51.67
4570;BME280;2297;51.442;6.996;2022-10-16T11:00:18;100299.38;;;17.11;51.63
4570;BME280;2297;51.442;6.996;2022-10-16T11:02:53;100292.44;;;17.07;51.63
4570;BME280;2297;51.442;6.996;2022-10-16T11:05:31;100292.81;;;17.19;51.81
4570;BME280;2297;51.442;6.996;2022-10-16T11:08:02;100285.53;;;17.40;51.71
4570;BME280;2297;51.442;6.996;2022-10-16T11:10:34;100288.03;;;17.25;51.06
4570;BME280;2297;51.442;6.996;2022-10-16T11:13:14;100293.31;;;17.44;50.42
4570;BME280;2297;51.442;6.996;2022-10-16T11:15:45;100300.22;;;17.49;49.97
4570;BME280;2297;51.442;6.996;2022-10-16T11:18:21;100300.09;;;17.52;49.56
4570;BME280;2297;51.442;6.996;2022-10-16T11:20:53;100292.53;;;17.42;48.99
4570;BME280;2297;51.442;6.996;2022-10-16T11:23:24;100301.09;;;17.49;49.08
4570;BME280;2297;51.442;6.996;2022-10-16T11:25:56;100300.09;;;17.52;49.36
4570;BME280;2297;51.442;6.996;2022-10-16T11:28:29;100298.31;;;17.33;49.45
4570;BME280;2297;51.442;6.996;2022-10-16T11:31:02;100305.66;;;17.10;50.37
4570;BME280;2297;51.442;6.996;2022-10-16T11:33:37;100316.63;;;17.04;50.79
4570;BME280;2297;51.442;6.996;2022-10-16T11:36:11;100311.28;;;17.04;50.91
4570;BME280;2297;51.442;6.996;2022-10-16T11:38:44;100314.44;;;17.12;50.68
4570;BME280;2297;51.442;6.996;2022-10-16T11:41:20;100310.88;;;17.31;50.84
4570;BME280;2297;51.442;6.996;2022-10-16T11:43:58;100304.41;;;17.54;50.18
4570;BME280;2297;51.442;6.996;2022-10-16T11:46:32;100307.09;;;17.72;49.73
4570;BME280;2297;51.442;6.996;2022-10-16T11:49:04;100294.66;;;18.06;49.34
4570;BME280;2297;51.442;6.996;2022-10-16T11:51:36;100296.06;;;18.13;48.96
4570;BME280;2297;51.442;6.996;2022-10-16T11:54:10;100308.47;;;18.32;48.17
4570;BME280;2297;51.442;6.996;2022-10-16T11:56:43;100308.56;;;18.30;47.19
4570;BME280;2297;51.442;6.996;2022-10-16T11:59:18;100312.94;;;18.49;46.68
4570;BME280;2297;51.442;6.996;2022-10-16T12:01:51;100317.06;;;18.21;46.47
4570;BME280;2297;51.442;6.996;2022-10-16T12:04:24;100322.75;;;18.48;46.46
4570;BME280;2297;51.442;6.996;2022-10-16T12:06:57;100327.34;;;18.46;46.16
4570;BME280;2297;51.442;6.996;2022-10-16T12:09:28;100330.38;;;18.56;46.11
4570;BME280;2297;51.442;6.996;2022-10-16T12:11:55;100328.22;;;18.62;46.16
4570;BME280;2297;51.442;6.996;2022-10-16T12:14:36;100327.53;;;18.59;46.43
4570;BME280;2297;51.442;6.996;2022-10-16T12:17:22;100322.88;;;18.78;46.34
4570;BME280;2297;51.442;6.996;2022-10-16T12:19:59;100321.94;;;19.11;45.98
4570;BME280;2297;51.442;6.996;2022-10-16T12:22:28;100320.75;;;19.01;45.04
4570;BME280;2297;51.442;6.996;2022-10-16T12:24:56;100316.59;;;18.95;45.16
4570;BME280;2297;51.442;6.996;2022-10-16T12:27:28;100320.91;;;18.82;46.01
4570;BME280;2297;51.442;6.996;2022-10-16T12:29:56;100322.97;;;18.61;46.78
4570;BME280;2297;51.442;6.996;2022-10-16T12:32:28;100336.16;;;18.64;46.72
4570;BME280;2297;51.442;6.996;2022-10-16T12:34:55;100332.59;;;18.48;46.92
4570;BME280;2297;51.442;6.996;2022-10-16T12:37:26;100319.97;;;18.67;46.84
4570;BME280;2297;51.442;6.996;2022-10-16T12:39:54;100324.00;;;18.74;46.76
4570;BME280;2297;51.442;6.996;2022-10-16T12:42:31;100334.06;;;18.87;46.14
4570;BME280;2297;51.442;6.996;2022-10-16T12:44:59;100327.13;;;18.83;46.08
4570;BME280;2297;51.442;6.996;2022-10-16T12:47:36;100334.72;;;19.06;45.29
4570;BME280;2297;51.442;6.996;2022-10-16T12:50:23;100336.78;;;19.01;44.94
4570;BME280;2297;51.442;6.996;2022-10-16T12:52:52;100332.81;;;18.76;44.85
4570;BME280;2297;51.442;6.996;2022-10-16T12:55:21;100339.03;;;18.77;45.26
4570;BME280;2297;51.442;6.996;2022-10-16T12:58:02;100331.97;;;18.92;44.67
4570;BME280;2297;51.442;6.996;2022-10-16T13:04:22;100336.13;;;19.14;44.52
4570;BME280;2297;51.442;6.996;2022-10-16T13:07:02;100338.47;;;19.20;44.50
4570;BME280;2297;51.442;6.996;2022-10-16T13:09:46;100340.53;;;19.47;44.04
4570;BME280;2297;51.442;6.996;2022-10-16T13:12:25;100331.69;;;19.60;44.01
4570;BME280;2297;51.442;6.996;2022-10-16T13:15:20;100338.38;;;19.37;44.17
4570;BME280;2297;51.442;6.996;2022-10-16T13:17:59;100338.94;;;18.94;44.13
4570;BME280;2297;51.442;6.996;2022-10-16T13:20:34;100333.88;;;19.38;43.83
4570;BME280;2297;51.442;6.996;2022-10-16T13:23:13;100336.44;;;19.55;43.42
4570;BME280;2297;51.442;6.996;2022-10-16T13:25:52;100343.97;;;19.49;42.43
4570;BME280;2297;51.442;6.996;2022-10-16T13:28:27;100342.34;;;19.30;42.69
4570;BME280;2297;51.442;6.996;2022-10-16T13:30:56;100347.50;;;19.01;43.55
4570;BME280;2297;51.442;6.996;2022-10-16T13:33:30;100355.06;;;18.61;44.30
4570;BME280;2297;51.442;6.996;2022-10-16T13:35:58;100371.06;;;18.45;44.78
4570;BME280;2297;51.442;6.996;2022-10-16T13:38:26;100371.72;;;18.66;44.60
4570;BME280;2297;51.442;6.996;2022-10-16T13:40:56;100367.84;;;18.72;44.67
4570;BME280;2297;51.442;6.996;2022-10-16T13:43:27;100363.47;;;18.87;44.31
4570;BME280;2297;51.442;6.996;2022-10-16T13:45:57;100363.91;;;18.95;43.74
4570;BME280;2297;51.442;6.996;2022-10-16T13:48:24;100368.28;;;18.80;43.76
4570;BME280;2297;51.442;6.996;2022-10-16T13:51:02;100363.00;;;18.78;43.72
4570;BME280;2297;51.442;6.996;2022-10-16T13:53:31;100353.88;;;18.83;43.80
4570;BME280;2297;51.442;6.996;2022-10-16T13:56:02;100357.34;;;18.85;43.45
4570;BME280;2297;51.442;6.996;2022-10-16T13:58:30;100351.47;;;18.78;43.41
4570;BME280;2297;51.442;6.996;2022-10-16T14:00:58;100352.84;;;19.01;43.73
4570;BME280;2297;51.442;6.996;2022-10-16T14:03:27;100346.50;;;19.20;44.10
4570;BME280;2297;51.442;6.996;2022-10-16T14:05:56;100343.81;;;19.36;43.35
4570;BME280;2297;51.442;6.996;2022-10-16T14:08:25;100356.00;;;19.41;43.09
4570;BME280;2297;51.442;6.996;2022-10-16T14:10:54;100354.06;;;19.43;43.25
4570;BME280;2297;51.442;6.996;2022-10-16T14:13:30;100348.56;;;19.47;43.23
4570;BME280;2297;51.442;6.996;2022-10-16T14:16:00;100367.19;;;19.64;42.83
4570;BME280;2297;51.442;6.996;2022-10-16T14:18:28;100366.13;;;19.83;43.00
4570;BME280;2297;51.442;6.996;2022-10-16T14:21:02;100371.28;;;19.86;42.44
4570;BME280;2297;51.442;6.996;2022-10-16T14:23:57;100378.97;;;19.45;42.54
4570;BME280;2297;51.442;6.996;2022-10-16T14:26:26;100370.53;;;19.37;43.16
4570;BME280;2297;51.442;6.996;2022-10-16T14:29:11;100379.28;;;19.07;43.61
4570;BME280;2297;51.442;6.996;2022-10-16T14:31:38;100379.47;;;19.04;43.73
4570;BME280;2297;51.442;6.996;2022-10-16T14:34:24;100364.25;;;19.05;44.34
4570;BME280;2297;51.442;6.996;2022-10-16T14:36:52;100344.91;;;19.00;44.40
4570;BME280;2297;51.442;6.996;2022-10-16T14:39:21;100327.56;;;18.91;44.87
4570;BME280;2297;51.442;6.996;2022-10-16T14:41:51;100337.16;;;18.95;45.37
4570;BME280;2297;51.442;6.996;2022-10-16T14:44:21;100362.47;;;19.05;45.66
4570;BME280;2297;51.442;6.996;2022-10-16T14:46:50;100360.44;;;19.09;45.10
4570;BME280;2297;51.442;6.996;2022-10-16T14:49:18;100358.56;;;19.11;44.66
4570;BME280;2297;51.442;6.996;2022-10-16T14:51:46;100359.41;;;19.11;45.20
4570;BME280;2297;51.442;6.996;2022-10-16T14:54:14;100370.63;;;19.02;44.74
4570;BME280;2297;51.442;6.996;2022-10-16T14:56:45;100368.38;;;18.94;44.61
4570;BME280;2297;51.442;6.996;2022-10-16T14:59:16;100357.00;;;18.91;44.93
4570;BME280;2297;51.442;6.996;2022-10-16T15:01:45;100370.03;;;18.97;45.03
4570;BME280;2297;51.442;6.996;2022-10-16T15:04:13;100363.91;;;18.95;46.02
4570;BME280;2297;51.442;6.996;2022-10-16T15:06:40;100349.75;;;18.93;45.82
4570;BME280;2297;51.442;6.996;2022-10-16T15:09:07;100370.09;;;18.79;46.39
4570;BME280;2297;51.442;6.996;2022-10-16T15:11:34;100384.59;;;18.75;46.04